Petroleum, Indiana
Current Conditions -  °F | °C
As of 8:15 PM on Sunday 23 Nov 2014 (Local Time) from KHHG Reporting Station
Moderate Rain Moderate Rain  
Wind Chill: 51°   Ceiling: 700
Heat Index: 51°   Visibility: 7mi
Dew Point: 50°   Wind: 10mph
Humidity: 97%   Direction: 140°SE
Pressure: 29.35"   Gusts: NA
Location:  40.61°N, 85.15°W
Report Text: KHHG 240115Z AUTO 14009KT 7SM RA OVC007 11/10 A2935 RMK AO2 P0004 T01050101
Loading
Personal Weather Stations






























Interactive Weather Map New forecast layout! Learn more

10-Day Weather Forecast

Advertisements
Track Severe Weather on mobile